KGBD

Great Bend Municipal Airport

Great Bend, Kansas, USA
METAR KGBD 101456Z AUTO 27007KT 10SM CLR M04/M05 A3034 RMK AO2 SLP297 T10441050 53009 FZRANO
Observed Flight Rules
Dec-10 @ 14:56 UTC (35 minutes ago) Visual Flight Rules
Wind Visibility Clouds
270° at 7 knots 10 miles
  • Clear skies
Temperatures Readings
Current -4°C / 25°F
Dewpoint -5°C / 23°F
Humidity 93%
Altimeter 30.34" Hg
Pressure 1029.7 hPa
Elevation 575
METAR KGBD 101456Z AUTO 27007KT 10SM CLR M04/M05 A3034 RMK AO2 SLP297 T10441050 53009 FZRANO
Observed Flight Rules
Dec-10 @ 14:56 UTC
(35 minutes ago)
VFR
Wind Visibility
270° at 7 knots 10 miles
Clouds
  • Clear skies
Temperature Dewpoint
-4°C / 25°F -5°C / 23°F
Humidity Altimeter Pressure
93% 30.34" Hg 1029.7 hPa